createdAt,value
2019-06-08T00:01:53.511Z,52.74
2019-06-08T00:04:21.173Z,52.69
2019-06-08T00:06:48.742Z,52.72
2019-06-08T00:09:17.047Z,52.65
2019-06-08T00:11:46.697Z,52.54
2019-06-08T00:14:15.374Z,52.48
2019-06-08T00:16:43.013Z,52.21
2019-06-08T00:19:11.241Z,52.21
2019-06-08T00:21:39.125Z,52.32
2019-06-08T00:24:09.237Z,52.31
2019-06-08T00:26:37.307Z,52.04
2019-06-08T00:29:04.960Z,52.21
2019-06-08T00:31:32.732Z,51.96
2019-06-08T00:34:00.299Z,51.67
2019-06-08T00:36:28.396Z,51.59
2019-06-08T00:38:59.101Z,51.59
2019-06-08T00:41:26.812Z,52.01
2019-06-08T00:43:54.931Z,52.01
2019-06-08T00:46:23.602Z,52.25
2019-06-08T00:48:51.793Z,52.44
2019-06-08T00:51:22.745Z,52.42
2019-06-08T00:53:50.630Z,52.42
2019-06-08T00:56:19.231Z,52.57
2019-06-08T00:58:47.026Z,52.88
2019-06-08T01:01:14.841Z,53.08
2019-06-08T01:03:43.280Z,53.08
2019-06-08T01:06:11.787Z,53.26
2019-06-08T01:08:39.540Z,53.35
2019-06-08T01:11:07.188Z,53.76
2019-06-08T01:13:35.189Z,53.76
2019-06-08T01:16:02.688Z,53.99
2019-06-08T01:18:30.901Z,53.99
2019-06-08T01:20:58.862Z,54.11
2019-06-08T01:23:27.902Z,54.08
2019-06-08T01:25:55.521Z,54.08
2019-06-08T01:28:23.963Z,54.29
2019-06-08T01:30:52.070Z,54.26
2019-06-08T01:33:20.399Z,54.40
2019-06-08T01:35:48.108Z,54.40
2019-06-08T01:38:15.779Z,53.59
2019-06-08T01:40:43.851Z,53.50
2019-06-08T01:43:11.468Z,53.50
2019-06-08T01:45:39.163Z,53.29
2019-06-08T01:48:19.455Z,53.16
2019-06-08T01:50:36.034Z,52.49
2019-06-08T01:53:03.697Z,52.28
2019-06-08T01:55:33.358Z,52.63
2019-06-08T01:58:01.065Z,52.83
2019-06-08T02:00:30.655Z,52.98
2019-06-08T02:02:58.439Z,52.98
2019-06-08T02:05:26.149Z,53.06
2019-06-08T02:07:53.865Z,53.28
2019-06-08T02:10:21.525Z,53.28
2019-06-08T02:12:49.507Z,53.50
2019-06-08T02:15:19.873Z,53.65
2019-06-08T02:17:47.482Z,53.63
2019-06-08T02:20:17.798Z,53.63
2019-06-08T02:22:45.890Z,53.42
2019-06-08T02:25:16.207Z,53.22
2019-06-08T02:27:44.262Z,53.22
2019-06-08T02:30:11.844Z,53.02
2019-06-08T02:32:42.981Z,52.51
2019-06-08T02:35:10.638Z,52.51
2019-06-08T02:37:39.772Z,52.53
2019-06-08T02:40:07.704Z,52.49
2019-06-08T02:42:40.227Z,52.16
2019-06-08T02:45:08.139Z,52.33
2019-06-08T02:47:36.893Z,51.93
2019-06-08T02:50:06.532Z,51.67
2019-06-08T02:52:36.158Z,51.68
2019-06-08T02:55:03.595Z,51.68
2019-06-08T02:57:35.598Z,51.24
2019-06-08T03:00:06.449Z,51.35
2019-06-08T03:02:36.262Z,50.95
2019-06-08T03:05:04.080Z,50.79
2019-06-08T03:07:32.247Z,50.85
2019-06-08T03:10:00.127Z,50.54
2019-06-08T03:12:31.111Z,50.54
2019-06-08T03:14:59.540Z,50.54
2019-06-08T03:17:27.306Z,50.39
2019-06-08T03:19:54.971Z,49.76
2019-06-08T03:22:22.740Z,49.97
2019-06-08T03:24:51.209Z,50.17
2019-06-08T03:27:18.907Z,50.17
2019-06-08T03:29:47.165Z,49.58
2019-06-08T03:32:15.236Z,49.24
2019-06-08T03:34:53.701Z,49.24
2019-06-08T03:37:12.288Z,49.53
2019-06-08T03:39:41.381Z,49.55
2019-06-08T03:42:12.864Z,49.55
2019-06-08T03:44:42.819Z,49.55
2019-06-08T03:47:11.886Z,49.69
2019-06-08T03:49:47.538Z,49.98
2019-06-08T03:52:09.253Z,49.90
2019-06-08T03:54:40.689Z,49.90
2019-06-08T03:57:10.022Z,49.84
2019-06-08T03:59:41.070Z,49.91
2019-06-08T04:02:09.711Z,49.98
2019-06-08T04:04:37.874Z,49.98
2019-06-08T04:07:06.886Z,49.95
2019-06-08T04:09:34.538Z,49.95
2019-06-08T04:12:03.415Z,50.00
2019-06-08T04:14:31.116Z,50.00
2019-06-08T04:17:00.374Z,49.92
2019-06-08T04:19:28.140Z,49.92
2019-06-08T04:21:55.728Z,49.51
2019-06-08T04:24:23.369Z,49.51
2019-06-08T04:26:52.752Z,49.30
2019-06-08T04:29:20.526Z,49.30
2019-06-08T04:31:50.003Z,49.15
2019-06-08T04:34:17.582Z,49.15
2019-06-08T04:36:46.408Z,49.27
2019-06-08T04:39:14.904Z,48.98
2019-06-08T04:41:43.160Z,48.98
2019-06-08T04:44:12.267Z,49.22
2019-06-08T04:46:40.771Z,49.27
2019-06-08T04:49:08.976Z,49.24
2019-06-08T04:51:36.651Z,49.32
2019-06-08T04:54:04.824Z,49.38
2019-06-08T04:56:32.382Z,49.39
2019-06-08T04:59:00.111Z,49.39
2019-06-08T05:01:28.117Z,49.29
2019-06-08T05:03:55.767Z,49.38
2019-06-08T05:06:25.969Z,49.54
2019-06-08T05:08:53.560Z,49.54
2019-06-08T05:11:21.665Z,49.60
2019-06-08T05:13:49.860Z,49.63
2019-06-08T05:16:17.620Z,49.63
2019-06-08T05:18:45.334Z,49.71
2019-06-08T05:21:13.411Z,49.72
2019-06-08T05:23:41.364Z,49.34
2019-06-08T05:26:09.266Z,49.53
2019-06-08T05:28:36.907Z,49.53
2019-06-08T05:31:04.577Z,49.63
2019-06-08T05:33:32.227Z,49.71
2019-06-08T05:35:59.976Z,49.83
2019-06-08T05:38:30.624Z,49.77
2019-06-08T05:40:58.297Z,49.85
2019-06-08T05:43:26.055Z,49.55
2019-06-08T05:45:53.812Z,49.35
2019-06-08T05:48:21.871Z,49.35
2019-06-08T05:51:00.399Z,49.25
2019-06-08T05:53:18.849Z,48.99
2019-06-08T05:55:46.511Z,49.44
2019-06-08T05:58:14.677Z,49.44
2019-06-08T06:00:42.265Z,49.27
2019-06-08T06:03:09.955Z,49.17
2019-06-08T06:05:37.960Z,49.05
2019-06-08T06:08:18.019Z,48.79
2019-06-08T06:10:38.213Z,48.79
2019-06-08T06:13:06.339Z,48.64
2019-06-08T06:15:33.994Z,48.56
2019-06-08T06:18:01.653Z,48.55
2019-06-08T06:20:32.207Z,48.25
2019-06-08T06:22:59.993Z,48.25
2019-06-08T06:25:27.715Z,47.80
2019-06-08T06:27:55.755Z,47.80
2019-06-08T06:30:23.485Z,47.74
2019-06-08T06:32:51.937Z,47.37
2019-06-08T06:35:19.913Z,47.40
2019-06-08T06:37:47.814Z,47.40
2019-06-08T06:40:15.302Z,47.21
2019-06-08T06:42:44.061Z,46.79
2019-06-08T06:45:11.630Z,46.31
2019-06-08T06:47:39.097Z,46.08
2019-06-08T06:50:06.958Z,46.08
2019-06-08T06:52:34.531Z,46.29
2019-06-08T06:55:02.114Z,46.29
2019-06-08T06:57:30.028Z,46.30
2019-06-08T06:59:57.587Z,46.62
2019-06-08T07:02:25.213Z,46.83
2019-06-08T07:04:56.312Z,46.80
2019-06-08T07:07:22.245Z,46.75
2019-06-08T07:09:50.527Z,46.82
2019-06-08T07:12:18.782Z,47.06
2019-06-08T07:14:47.000Z,46.82
2019-06-08T07:17:14.899Z,46.82
2019-06-08T07:19:44.156Z,46.90
2019-06-08T07:22:11.683Z,46.90
2019-06-08T07:24:39.337Z,46.90
2019-06-08T07:27:08.088Z,47.08
2019-06-08T07:29:35.722Z,47.00
2019-06-08T07:32:03.292Z,46.99
2019-06-08T07:34:31.152Z,46.99
2019-06-08T07:36:59.565Z,46.88
2019-06-08T07:39:27.222Z,46.87
2019-06-08T07:41:56.157Z,46.87
2019-06-08T07:44:23.729Z,46.56
2019-06-08T07:46:51.444Z,46.56
2019-06-08T07:49:19.359Z,46.58
2019-06-08T07:51:58.894Z,46.58
2019-06-08T07:54:19.075Z,46.52
2019-06-08T07:56:46.869Z,46.59
2019-06-08T07:59:17.256Z,46.59
2019-06-08T08:01:44.824Z,45.73
2019-06-08T08:04:12.714Z,45.73
2019-06-08T08:06:44.821Z,45.69
2019-06-08T08:09:12.435Z,45.73
2019-06-08T08:11:40.297Z,45.70
2019-06-08T08:14:07.868Z,45.66
2019-06-08T08:16:35.332Z,45.66
2019-06-08T08:19:03.176Z,45.62
2019-06-08T08:21:30.774Z,45.58
2019-06-08T08:24:00.243Z,45.67
2019-06-08T08:26:34.247Z,45.76
2019-06-08T08:29:03.062Z,45.76
2019-06-08T08:31:29.365Z,45.83
2019-06-08T08:34:04.393Z,45.83
2019-06-08T08:36:29.088Z,45.40
2019-06-08T08:39:00.230Z,45.40
2019-06-08T08:41:32.752Z,45.63
2019-06-08T08:44:02.847Z,45.47
2019-06-08T08:46:29.436Z,45.25
2019-06-08T08:49:05.973Z,45.47
2019-06-08T08:51:28.686Z,45.47
2019-06-08T08:54:02.017Z,45.21
2019-06-08T08:56:28.251Z,45.13
2019-06-08T08:58:59.155Z,44.97
2019-06-08T09:01:28.773Z,44.66
2019-06-08T09:04:00.934Z,44.66
2019-06-08T09:06:27.824Z,44.82
2019-06-08T09:08:55.855Z,44.99
2019-06-08T09:11:29.898Z,45.06
2019-06-08T09:13:59.285Z,44.94
2019-06-08T09:16:30.600Z,45.06
2019-06-08T09:19:04.077Z,45.09
2019-06-08T09:21:33.618Z,45.07
2019-06-08T09:24:03.861Z,44.85
2019-06-08T09:26:31.409Z,44.35
2019-06-08T09:29:05.023Z,44.35
2019-06-08T09:31:31.560Z,43.85
2019-06-08T09:34:08.623Z,44.00
2019-06-08T09:36:28.846Z,44.00
2019-06-08T09:38:59.640Z,44.31
2019-06-08T09:41:30.879Z,44.31
2019-06-08T09:43:58.194Z,43.81
2019-06-08T09:46:27.685Z,43.75
2019-06-08T09:49:07.626Z,43.59
2019-06-08T09:51:30.121Z,43.23
2019-06-08T09:54:03.736Z,42.89
2019-06-08T09:56:30.075Z,42.50
2019-06-08T09:59:01.261Z,41.95
2019-06-08T10:01:30.216Z,41.70
2019-06-08T10:04:00.848Z,41.52
2019-06-08T10:06:27.271Z,41.15
2019-06-08T10:08:56.231Z,41.22
2019-06-08T10:11:27.927Z,41.22
2019-06-08T10:13:54.729Z,41.33
2019-06-08T10:16:32.335Z,41.33
2019-06-08T10:19:03.584Z,41.27
2019-06-08T10:21:33.106Z,41.73
2019-06-08T10:24:02.723Z,41.96
2019-06-08T10:26:30.155Z,41.87
2019-06-08T10:29:03.623Z,41.89
2019-06-08T10:31:39.847Z,41.11
2019-06-08T10:34:03.597Z,40.10
2019-06-08T10:36:31.379Z,40.10
2019-06-08T10:39:02.768Z,39.56
2019-06-08T10:41:28.427Z,39.82
2019-06-08T10:43:57.127Z,39.82
2019-06-08T10:46:25.053Z,40.65
2019-06-08T10:48:53.053Z,40.71
2019-06-08T10:51:20.698Z,40.71
2019-06-08T10:53:52.702Z,40.52
2019-06-08T10:56:18.824Z,40.83
2019-06-08T10:58:49.474Z,40.98
2019-06-08T11:01:18.598Z,41.19
2019-06-08T11:03:45.281Z,41.40
2019-06-08T11:06:13.574Z,41.65
2019-06-08T11:08:41.622Z,41.65
2019-06-08T11:11:12.131Z,41.55
2019-06-08T11:13:39.721Z,41.14
2019-06-08T11:16:12.794Z,40.82
2019-06-08T11:18:39.112Z,40.82
2019-06-08T11:21:09.867Z,40.62
2019-06-08T11:23:41.594Z,40.09
2019-06-08T11:26:19.159Z,39.70
2019-06-08T11:28:40.345Z,39.83
2019-06-08T11:31:11.963Z,38.96
2019-06-08T11:33:39.050Z,38.96
2019-06-08T11:36:12.722Z,37.33
2019-06-08T11:38:38.222Z,36.89
2019-06-08T11:41:13.047Z,37.53
2019-06-08T11:43:38.163Z,38.52
2019-06-08T11:46:06.643Z,38.91
2019-06-08T11:48:34.291Z,38.91
2019-06-08T11:51:06.701Z,38.72
2019-06-08T11:53:31.397Z,36.73
2019-06-08T11:56:02.690Z,36.73
2019-06-08T11:58:30.739Z,37.01
2019-06-08T12:01:01.903Z,36.90
2019-06-08T12:03:30.455Z,37.62
2019-06-08T12:05:58.352Z,38.12
2019-06-08T12:08:29.153Z,37.99
2019-06-08T12:11:01.245Z,37.70
2019-06-08T12:13:27.787Z,38.38
2019-06-08T12:15:55.764Z,39.64
2019-06-08T12:18:23.372Z,39.64
2019-06-08T12:20:50.907Z,38.63
2019-06-08T12:23:21.786Z,37.97
2019-06-08T12:25:49.397Z,38.63
2019-06-08T12:28:17.886Z,38.63
2019-06-08T12:30:47.693Z,38.99
2019-06-08T12:33:22.832Z,39.57
2019-06-08T12:35:49.687Z,40.25
2019-06-08T12:38:18.938Z,41.03
2019-06-08T12:40:49.605Z,41.26
2019-06-08T12:43:18.911Z,41.26
2019-06-08T12:45:49.085Z,41.09
2019-06-08T12:48:22.930Z,41.09
2019-06-08T12:50:47.972Z,40.54
2019-06-08T12:53:23.196Z,40.04
2019-06-08T12:55:51.104Z,40.04
2019-06-08T12:58:21.983Z,39.65
2019-06-08T13:00:50.453Z,39.65
2019-06-08T13:03:21.062Z,40.02
2019-06-08T13:05:48.669Z,40.02
2019-06-08T13:08:20.063Z,40.71
2019-06-08T13:10:50.176Z,41.01
2019-06-08T13:13:19.941Z,41.01
2019-06-08T13:15:48.398Z,41.33
2019-06-08T13:18:17.641Z,41.08
2019-06-08T13:20:45.363Z,37.61
2019-06-08T13:23:13.235Z,36.26
2019-06-08T13:25:43.820Z,36.26
2019-06-08T13:28:15.205Z,35.58
2019-06-08T13:30:39.922Z,36.10
2019-06-08T13:33:08.099Z,36.84
2019-06-08T13:35:35.946Z,37.37
2019-06-08T13:38:03.787Z,36.83
2019-06-08T13:40:31.354Z,35.59
2019-06-08T13:42:59.059Z,35.76
2019-06-08T13:45:28.040Z,36.19
2019-06-08T13:47:55.650Z,35.34
2019-06-08T13:50:25.281Z,34.64
2019-06-08T13:52:53.090Z,34.59
2019-06-08T13:55:40.390Z,33.67
2019-06-08T13:57:54.173Z,33.67
2019-06-08T14:00:23.676Z,34.29
2019-06-08T14:02:51.986Z,35.44
2019-06-08T14:05:25.756Z,35.44
2019-06-08T14:07:54.912Z,36.40
2019-06-08T14:10:24.099Z,37.01
2019-06-08T14:12:55.074Z,37.43
2019-06-08T14:15:23.408Z,37.55
2019-06-08T14:17:54.029Z,37.37
2019-06-08T14:20:24.196Z,36.63
2019-06-08T14:22:53.997Z,36.05
2019-06-08T14:25:22.953Z,35.70
2019-06-08T14:27:51.151Z,37.08
2019-06-08T14:30:20.551Z,37.08
2019-06-08T14:32:50.814Z,38.21
2019-06-08T14:35:20.926Z,36.46
2019-06-08T14:37:48.178Z,34.66
2019-06-08T14:40:17.221Z,33.17
2019-06-08T14:42:44.886Z,33.01
2019-06-08T14:45:12.340Z,34.23
2019-06-08T14:47:40.197Z,34.70
2019-06-08T14:50:08.058Z,35.16
2019-06-08T14:52:37.938Z,35.42
2019-06-08T14:55:18.740Z,36.03
2019-06-08T14:57:48.173Z,36.03
2019-06-08T15:00:18.834Z,36.20
2019-06-08T15:02:45.294Z,36.96
2019-06-08T15:05:13.227Z,38.66
2019-06-08T15:07:41.172Z,38.66
2019-06-08T15:10:28.039Z,38.24
2019-06-08T15:12:57.581Z,36.53
2019-06-08T15:15:25.698Z,36.53
2019-06-08T15:17:53.916Z,34.20
2019-06-08T15:20:21.983Z,32.31
2019-06-08T15:22:49.524Z,32.31
2019-06-08T15:25:20.496Z,32.73
2019-06-08T15:27:48.390Z,34.37
2019-06-08T15:30:21.117Z,35.81
2019-06-08T15:32:49.660Z,35.81
2019-06-08T15:35:18.144Z,36.20
2019-06-08T15:37:47.748Z,38.29
2019-06-08T15:40:17.562Z,38.29
2019-06-08T15:42:44.543Z,38.64
2019-06-08T15:45:13.223Z,42.76
2019-06-08T15:47:44.094Z,42.76
2019-06-08T15:50:13.759Z,49.16
2019-06-08T15:52:41.390Z,55.06
2019-06-08T15:55:11.255Z,56.33
2019-06-08T15:57:41.017Z,57.07
2019-06-08T16:00:10.140Z,56.48
2019-06-08T16:02:37.295Z,56.48
2019-06-08T16:05:04.928Z,52.44
2019-06-08T16:07:35.702Z,52.44
2019-06-08T16:10:03.682Z,49.19
2019-06-08T16:12:33.057Z,46.85
2019-06-08T16:15:00.482Z,44.96
2019-06-08T16:17:29.245Z,44.96
2019-06-08T16:19:56.874Z,43.50
2019-06-08T16:22:27.623Z,43.50
2019-06-08T16:24:55.557Z,43.12
2019-06-08T16:27:23.131Z,45.02
2019-06-08T16:29:50.989Z,47.15
2019-06-08T16:32:18.851Z,49.05
2019-06-08T16:34:46.446Z,49.05
2019-06-08T16:37:18.667Z,50.67
2019-06-08T16:39:46.597Z,50.67
2019-06-08T16:42:14.504Z,52.01
2019-06-08T16:44:43.508Z,52.38
2019-06-08T16:47:16.019Z,52.38
2019-06-08T16:49:43.630Z,53.12
2019-06-08T16:52:11.233Z,53.14
2019-06-08T16:54:44.996Z,53.14
2019-06-08T16:57:16.052Z,53.53
2019-06-08T16:59:39.354Z,53.33
2019-06-08T17:02:07.255Z,53.27
2019-06-08T17:04:37.211Z,53.34
2019-06-08T17:07:04.801Z,53.93
2019-06-08T17:09:34.145Z,53.51
2019-06-08T17:12:02.082Z,53.51
2019-06-08T17:14:29.986Z,53.80
2019-06-08T17:16:57.901Z,54.10
2019-06-08T17:19:25.774Z,54.10
2019-06-08T17:21:53.390Z,54.01
2019-06-08T17:24:21.395Z,54.01
2019-06-08T17:26:48.981Z,53.93
2019-06-08T17:29:19.489Z,53.63
2019-06-08T17:31:51.224Z,53.63
2019-06-08T17:34:40.290Z,53.13
2019-06-08T17:37:07.857Z,53.13
2019-06-08T17:39:42.114Z,54.32
2019-06-08T17:42:11.984Z,53.99
2019-06-08T17:44:40.370Z,53.99
2019-06-08T17:47:08.253Z,54.95
2019-06-08T17:49:43.931Z,54.95
2019-06-08T17:52:07.378Z,54.93
2019-06-08T17:54:35.187Z,54.98
2019-06-08T17:57:04.417Z,54.97
2019-06-08T17:59:35.302Z,54.82
2019-06-08T18:02:01.502Z,54.82
2019-06-08T18:04:40.978Z,54.86
2019-06-08T18:07:08.822Z,54.77
2019-06-08T18:09:40.682Z,54.76
2019-06-08T18:12:08.326Z,54.87
2019-06-08T18:14:40.473Z,55.13
2019-06-08T18:17:13.425Z,55.46
2019-06-08T18:19:46.206Z,55.77
2019-06-08T18:22:18.420Z,56.38
2019-06-08T18:24:44.665Z,56.68
2019-06-08T18:27:12.445Z,56.82
2019-06-08T18:29:44.414Z,57.29
2019-06-08T18:32:12.754Z,57.45
2019-06-08T18:34:41.539Z,58.24
2019-06-08T18:37:09.591Z,58.24
2019-06-08T18:39:40.905Z,58.87
2019-06-08T18:42:10.471Z,59.04
2019-06-08T18:44:40.746Z,59.04
2019-06-08T18:47:09.421Z,59.18
2019-06-08T18:49:40.164Z,59.48
2019-06-08T18:52:09.373Z,59.74
2019-06-08T18:54:38.461Z,60.00
2019-06-08T18:57:17.661Z,60.13
2019-06-08T18:59:44.318Z,60.37
2019-06-08T19:02:08.554Z,60.54
2019-06-08T19:04:37.776Z,60.83
2019-06-08T19:07:07.984Z,60.84
2019-06-08T19:09:53.200Z,61.01
2019-06-08T19:12:20.820Z,61.01
2019-06-08T19:14:51.954Z,61.45
2019-06-08T19:17:21.175Z,61.50
2019-06-08T19:19:52.403Z,61.67
2019-06-08T19:22:23.378Z,61.67
2019-06-08T19:24:50.990Z,61.76
2019-06-08T19:27:18.611Z,61.38
2019-06-08T19:29:47.573Z,61.38
2019-06-08T19:32:17.067Z,61.55
2019-06-08T19:34:47.722Z,61.70
2019-06-08T19:37:17.240Z,61.79
2019-06-08T19:39:46.441Z,61.77
2019-06-08T19:42:35.570Z,61.94
2019-06-08T19:45:04.884Z,61.94
2019-06-08T19:47:24.110Z,62.01
2019-06-08T19:49:57.789Z,62.13
2019-06-08T19:52:25.430Z,62.33
2019-06-08T19:54:54.035Z,62.47
2019-06-08T19:57:21.729Z,62.51
2019-06-08T19:59:49.684Z,62.52
2019-06-08T20:02:17.764Z,62.52
2019-06-08T20:04:47.247Z,62.69
2019-06-08T20:07:17.861Z,62.45
2019-06-08T20:09:47.592Z,62.45
2019-06-08T20:12:18.629Z,63.16
2019-06-08T20:14:48.424Z,63.04
2019-06-08T20:17:17.203Z,63.04
2019-06-08T20:19:50.816Z,63.16
2019-06-08T20:22:18.426Z,63.18
2019-06-08T20:24:52.087Z,63.22
2019-06-08T20:27:20.472Z,63.16
2019-06-08T20:29:49.692Z,63.38
2019-06-08T20:32:18.115Z,63.26
2019-06-08T20:34:49.049Z,63.28
2019-06-08T20:37:14.887Z,63.00
2019-06-08T20:39:59.604Z,63.00
2019-06-08T20:42:19.147Z,63.33
2019-06-08T20:44:48.669Z,63.33
2019-06-08T20:47:20.379Z,63.04
2019-06-08T20:49:48.899Z,62.99
2019-06-08T20:52:14.626Z,63.03
2019-06-08T20:54:42.785Z,63.36
2019-06-08T20:57:10.498Z,63.10
2019-06-08T20:59:40.049Z,63.10
2019-06-08T21:02:08.532Z,63.37
2019-06-08T21:04:39.302Z,63.32
2019-06-08T21:07:13.982Z,63.32
2019-06-08T21:09:41.542Z,63.54
2019-06-08T21:12:09.131Z,63.78
2019-06-08T21:14:37.985Z,63.76
2019-06-08T21:17:07.616Z,64.00
2019-06-08T21:19:37.033Z,64.09
2019-06-08T21:22:08.193Z,64.09
2019-06-08T21:24:53.995Z,63.93
2019-06-08T21:27:23.022Z,64.21
2019-06-08T21:29:59.359Z,64.46
2019-06-08T21:32:21.723Z,64.46
2019-06-08T21:34:52.018Z,64.38
2019-06-08T21:37:20.553Z,64.62
2019-06-08T21:39:55.301Z,64.62
2019-06-08T21:42:23.564Z,64.47
2019-06-08T21:44:59.415Z,64.61
2019-06-08T21:47:27.188Z,64.61
2019-06-08T21:49:57.490Z,64.85
2019-06-08T21:52:30.102Z,65.06
2019-06-08T21:55:03.952Z,65.06
2019-06-08T21:57:33.582Z,65.11
2019-06-08T22:00:22.019Z,65.02
2019-06-08T22:02:37.451Z,65.02
2019-06-08T22:05:04.898Z,65.08
2019-06-08T22:07:32.467Z,65.03
2019-06-08T22:10:07.838Z,65.13
2019-06-08T22:12:39.862Z,65.13
2019-06-08T22:15:04.653Z,65.20
2019-06-08T22:17:32.457Z,64.91
2019-06-08T22:20:10.167Z,64.91
2019-06-08T22:22:29.174Z,64.93
2019-06-08T22:25:08.241Z,65.31
2019-06-08T22:27:37.938Z,65.09
2019-06-08T22:30:13.356Z,65.48
2019-06-08T22:32:38.589Z,65.03
2019-06-08T22:35:08.007Z,65.03
2019-06-08T22:37:37.951Z,65.37
2019-06-08T22:40:07.938Z,65.37
2019-06-08T22:42:40.422Z,65.49
2019-06-08T22:45:09.339Z,65.49
2019-06-08T22:47:38.748Z,65.56
2019-06-08T22:50:09.503Z,65.59
2019-06-08T22:52:37.621Z,65.61
2019-06-08T22:55:09.704Z,65.61
2019-06-08T22:57:40.986Z,65.75
2019-06-08T23:00:17.263Z,65.42
2019-06-08T23:02:40.122Z,65.42
2019-06-08T23:05:09.378Z,65.38
2019-06-08T23:07:37.502Z,65.38
2019-06-08T23:10:09.078Z,65.73
2019-06-08T23:12:38.172Z,65.78
2019-06-08T23:15:07.767Z,65.93
2019-06-08T23:17:38.314Z,65.94
2019-06-08T23:20:06.192Z,66.03
2019-06-08T23:22:34.035Z,66.12
2019-06-08T23:25:08.880Z,66.12
2019-06-08T23:27:34.630Z,66.12
2019-06-08T23:30:06.075Z,66.12
2019-06-08T23:32:32.717Z,66.05
2019-06-08T23:35:00.741Z,66.33
2019-06-08T23:37:28.315Z,66.33
2019-06-08T23:39:57.969Z,66.42
2019-06-08T23:42:27.322Z,66.65
2019-06-08T23:44:54.760Z,66.76
2019-06-08T23:47:27.467Z,66.76
2019-06-08T23:49:55.079Z,66.61
2019-06-08T23:52:22.526Z,66.62
2019-06-08T23:54:50.321Z,66.62
2019-06-08T23:57:18.055Z,66.77
2019-06-08T23:59:47.735Z,66.73
